Airfield :







YOU CAN JOIN US ON...

 
LOGIN :

Register | Disclaimer

   EN    FR    IT 

 









Legend :    VFR   Marginal VFR   IFR   Intensive IFR   Very Intensive IFR
Visi :
Ceiling :
>= 8 km
>= 3000ft
5 to 8 km
1000 to 3000 ft
1500m to 5 km
500 to 1000 ft
800 to 1500m
200 to 500 ft
< 800m
< 200 ft
Symbols :   Thunderstorms  Fog  Heavy snow  Heavy precipitations  Wind > 20 kt






- Airport Elevation : 488 ft
- IATA code : EEN


KEEN - Dillant Hopkins

CURRENT METAR :
  • 161556Z AUTO 13006KT 10SM FEW041 24/14 A3032 RMK AO2 SLP269 P0001 T02390139 $

EXPIRED METARs :
  • 161456Z AUTO 22008KT 10SM CLR 23/13 A3033 RMK AO2 SLP272 P0001 60006 T02280133 57011 $
  • 161356Z AUTO 20005KT 10SM FEW049 22/14 A3033 RMK AO2 SLP275 P0005 T02170139 $
  • 161319Z AUTO 19007KT 10SM FEW002 SCT041 BKN049 21/14 A3034 RMK AO2 P0002 $

TAF N/A
KZBW FIR / North America



MET'MAP, your aeronautical weather chart ! - Copyright ORBIFLY December 2007 - Disclaimer

ORBIFLY MET'MAP TEAM :

Programming & Development : Alexandra Zaïnal
Concept & original design : Baudouin d'Aumeries
Assistance for programming : Marc-Olivier Méhu
Technical & hardware support : Manuel Goepfert

Contact : metmap@orbifly.com




SOURCES & CREDITS :

   NOAA